Time;durP1;ratioP1;P1;durP2;ratioP2;P2;SDS_P1;SDS_P2;PMS_P1;PMS_P2;Temp;Humidity;BMP_temperature;BMP_pressure;BME280_temperature;BME280_humidity;BME280_pressure;Samples;Min_cycle;Max_cycle;Signal;HPM_P1;HPM_P2
2021/05/29 00:00:51;;;;;;;24.08;15.60;;;9.50;95.10;;;;;;4893793;29;20036;-82
2021/05/29 00:03:18;;;;;;;32.42;16.45;;;9.50;95.10;;;;;;4928798;29;20051;-82
2021/05/29 00:05:45;;;;;;;34.10;17.50;;;9.50;95.10;;;;;;4955023;28;20039;-83
2021/05/29 00:08:11;;;;;;;34.67;17.85;;;9.40;95.20;;;;;;4893576;29;20486;-82
2021/05/29 00:10:39;;;;;;;34.65;18.42;;;9.40;95.30;;;;;;4912519;29;20039;-82
2021/05/29 00:13:06;;;;;;;34.15;18.40;;;9.40;95.50;;;;;;4913660;29;20040;-82
2021/05/29 00:15:33;;;;;;;29.20;16.80;;;9.40;95.50;;;;;;4940430;29;20479;-82
2021/05/29 00:17:59;;;;;;;28.13;16.45;;;9.40;95.40;;;;;;4928043;29;20039;-82
2021/05/29 00:20:25;;;;;;;31.05;18.00;;;9.40;95.40;;;;;;4939461;28;20409;-82
2021/05/29 00:22:51;;;;;;;28.83;17.02;;;9.40;95.60;;;;;;4961242;28;20115;-82
2021/05/29 00:25:17;;;;;;;26.33;16.88;;;9.40;95.50;;;;;;4942728;29;20037;-82
2021/05/29 00:27:43;;;;;;;26.58;16.95;;;9.30;95.50;;;;;;4943732;28;20034;-82
2021/05/29 00:30:13;;;;;;;20.17;13.27;;;9.30;95.40;;;;;;4925566;29;20035;-82
2021/05/29 00:32:40;;;;;;;28.67;14.82;;;9.30;95.30;;;;;;4896268;29;20055;-82
2021/05/29 00:35:08;;;;;;;23.35;13.77;;;9.30;95.30;;;;;;4943336;28;20055;-82
2021/05/29 00:37:35;;;;;;;20.38;12.15;;;9.20;95.20;;;;;;4909916;29;20047;-83
2021/05/29 00:40:01;;;;;;;17.13;11.65;;;9.20;95.20;;;;;;4911331;29;20102;-83
2021/05/29 00:42:27;;;;;;;21.20;11.75;;;9.10;95.10;;;;;;4912881;29;20035;-83
2021/05/29 00:44:55;;;;;;;26.95;14.20;;;9.10;95.40;;;;;;4940953;29;20050;-83
2021/05/29 00:47:27;;;;;;;17.67;10.55;;;9.10;95.60;;;;;;4916503;29;20434;-83
2021/05/29 00:49:54;;;;;;;20.90;11.23;;;9.10;95.50;;;;;;4925458;29;20059;-83
2021/05/29 00:52:22;;;;;;;27.02;13.65;;;9.00;95.50;;;;;;4942437;29;20544;-83
2021/05/29 00:54:49;;;;;;;24.85;13.15;;;9.00;95.40;;;;;;4958880;28;20042;-83
2021/05/29 00:57:15;;;;;;;22.75;12.38;;;9.00;95.30;;;;;;4943203;29;20044;-83
2021/05/29 00:59:43;;;;;;;19.58;11.35;;;8.90;95.30;;;;;;4941636;28;20059;-82
2021/05/29 01:02:13;;;;;;;17.73;10.57;;;8.90;95.30;;;;;;4948535;28;20039;-84
2021/05/29 01:04:39;;;;;;;16.38;9.27;;;8.80;95.20;;;;;;4908103;29;20052;-83
2021/05/29 01:07:10;;;;;;;16.30;9.63;;;8.70;95.10;;;;;;4922598;29;20032;-83
2021/05/29 01:09:37;;;;;;;16.25;9.43;;;8.70;95.10;;;;;;4925487;29;20047;-83
2021/05/29 01:12:05;;;;;;;16.33;10.82;;;8.60;95.10;;;;;;4913142;29;20040;-84
2021/05/29 01:14:32;;;;;;;21.23;11.05;;;8.60;95.00;;;;;;4913063;29;20063;-83
2021/05/29 01:17:03;;;;;;;16.70;11.50;;;8.50;95.10;;;;;;4943772;28;20337;-84
2021/05/29 01:19:30;;;;;;;21.95;12.63;;;8.50;95.30;;;;;;4912408;29;20042;-83
2021/05/29 01:21:58;;;;;;;21.25;12.48;;;8.50;95.30;;;;;;4929187;29;20442;-83
2021/05/29 01:24:25;;;;;;;20.48;10.93;;;8.50;95.30;;;;;;4896160;29;20040;-83
2021/05/29 01:26:53;;;;;;;19.75;11.05;;;8.50;95.30;;;;;;4929648;29;20063;-83
2021/05/29 01:29:19;;;;;;;23.23;13.07;;;8.50;95.20;;;;;;4914080;29;20416;-83
2021/05/29 01:31:58;;;;;;;20.00;12.20;;;8.50;95.20;;;;;;4894090;29;20055;-83
2021/05/29 01:34:27;;;;;;;19.95;12.02;;;8.50;95.30;;;;;;4927664;29;20227;-84
2021/05/29 01:36:54;;;;;;;22.52;11.90;;;8.50;95.40;;;;;;4924493;29;20043;-84
2021/05/29 01:39:20;;;;;;;18.05;11.10;;;8.50;95.40;;;;;;4937479;29;20091;-84
2021/05/29 01:41:46;;;;;;;22.30;11.73;;;8.50;95.30;;;;;;4939674;29;20147;-84
2021/05/29 01:44:13;;;;;;;19.95;12.00;;;8.50;95.30;;;;;;4936208;29;20561;-84
2021/05/29 01:46:39;;;;;;;19.92;12.95;;;8.50;95.40;;;;;;4953551;28;20063;-88
2021/05/29 01:49:04;;;;;;;21.60;11.85;;;8.50;95.40;;;;;;4886356;29;20043;-84
2021/05/29 01:51:31;;;;;;;23.48;13.27;;;8.50;95.30;;;;;;4922538;29;20093;-84
2021/05/29 01:53:57;;;;;;;25.40;12.93;;;8.40;95.40;;;;;;4966325;28;20095;-84
2021/05/29 01:56:22;;;;;;;19.45;12.32;;;8.40;95.50;;;;;;4952196;29;20095;-84
2021/05/29 01:58:50;;;;;;;23.63;14.13;;;8.40;95.50;;;;;;4916195;29;20043;-84
2021/05/29 02:01:16;;;;;;;26.95;13.27;;;8.40;95.60;;;;;;4932639;29;20039;-84
2021/05/29 02:03:44;;;;;;;27.73;13.68;;;8.40;95.60;;;;;;4951310;28;20043;-84
2021/05/29 02:06:11;;;;;;;23.67;14.02;;;8.40;95.50;;;;;;4902790;29;20047;-84
2021/05/29 02:08:37;;;;;;;28.52;16.33;;;8.50;95.60;;;;;;4966228;28;20039;-84
2021/05/29 02:11:03;;;;;;;28.02;15.73;;;8.50;95.70;;;;;;4934159;29;20039;-84
2021/05/29 02:13:31;;;;;;;23.73;15.85;;;8.50;95.70;;;;;;4921088;29;20047;-84
2021/05/29 02:15:59;;;;;;;26.88;15.05;;;8.50;95.80;;;;;;4918457;29;20142;-84
2021/05/29 02:18:25;;;;;;;23.38;14.38;;;8.50;95.80;;;;;;4922348;29;20035;-84
2021/05/29 02:20:54;;;;;;;19.70;13.38;;;8.60;95.80;;;;;;4950826;29;20314;-84
2021/05/29 02:23:26;;;;;;;31.50;14.90;;;8.50;95.80;;;;;;4918327;29;21203;-84
2021/05/29 02:25:55;;;;;;;28.80;16.25;;;8.60;95.80;;;;;;4932466;29;20641;-84
2021/05/29 02:28:21;;;;;;;29.35;15.48;;;8.60;95.80;;;;;;4917023;29;20076;-84
2021/05/29 02:30:48;;;;;;;24.70;15.25;;;8.60;95.80;;;;;;4949822;28;20027;-84
2021/05/29 02:33:14;;;;;;;25.23;15.63;;;8.60;95.80;;;;;;4917597;29;20047;-84
2021/05/29 02:35:40;;;;;;;29.27;15.80;;;8.60;95.90;;;;;;4964137;28;20066;-84
2021/05/29 02:38:23;;;;;;;25.80;15.23;;;8.60;95.90;;;;;;4932225;29;20455;-84
2021/05/29 02:40:49;;;;;;;25.20;15.02;;;8.60;95.80;;;;;;4933277;29;20086;-84
2021/05/29 02:43:15;;;;;;;23.45;15.55;;;8.60;95.90;;;;;;4949550;29;20058;-84
2021/05/29 02:45:41;;;;;;;25.45;16.50;;;8.60;95.90;;;;;;4929482;29;20044;-84
2021/05/29 02:48:09;;;;;;;28.95;15.15;;;8.60;95.90;;;;;;4933962;29;20131;-84
2021/05/29 02:50:35;;;;;;;28.75;16.58;;;8.60;96.00;;;;;;4916902;29;20054;-84
2021/05/29 02:53:01;;;;;;;23.10;15.65;;;8.60;96.00;;;;;;4964951;28;20463;-84
2021/05/29 02:55:27;;;;;;;22.95;14.57;;;8.70;96.10;;;;;;4947854;28;20043;-84
2021/05/29 02:57:56;;;;;;;22.85;14.68;;;8.60;96.00;;;;;;4931520;29;20031;-83
2021/05/29 03:00:25;;;;;;;20.17;13.57;;;8.60;96.00;;;;;;4913995;29;20650;-84
2021/05/29 03:02:51;;;;;;;23.92;15.48;;;8.60;96.00;;;;;;4915623;29;20036;-83
2021/05/29 03:05:17;;;;;;;23.00;14.43;;;8.60;95.90;;;;;;4915331;29;20155;-84
2021/05/29 03:07:45;;;;;;;25.92;15.77;;;8.70;95.90;;;;;;4927366;29;20032;-83
2021/05/29 03:10:11;;;;;;;29.05;18.00;;;8.70;96.00;;;;;;4915389;29;20148;-84
2021/05/29 03:12:38;;;;;;;34.72;20.10;;;8.70;96.00;;;;;;4947875;29;20042;-84
2021/05/29 03:15:07;;;;;;;37.35;21.25;;;8.70;96.00;;;;;;4963274;28;20051;-83
2021/05/29 03:17:33;;;;;;;37.20;21.77;;;8.70;96.10;;;;;;4935520;29;20079;-82
2021/05/29 03:19:59;;;;;;;39.53;21.23;;;8.80;96.20;;;;;;4960303;28;20054;-83
2021/05/29 03:22:25;;;;;;;36.35;21.30;;;8.80;96.20;;;;;;4901719;29;20032;-83
2021/05/29 03:24:51;;;;;;;40.45;21.30;;;8.90;96.20;;;;;;4944341;28;20092;-83
2021/05/29 03:27:18;;;;;;;40.25;21.83;;;8.90;96.20;;;;;;4926543;29;20024;-83
2021/05/29 03:29:45;;;;;;;34.80;20.17;;;9.00;96.20;;;;;;4925731;29;20048;-83
2021/05/29 03:32:11;;;;;;;37.30;19.92;;;9.00;96.20;;;;;;4927077;29;20384;-83
2021/05/29 03:34:37;;;;;;;30.30;18.70;;;9.00;96.20;;;;;;4925712;29;20038;-83
2021/05/29 03:37:03;;;;;;;38.30;20.10;;;9.00;96.20;;;;;;4930998;29;20111;-83
2021/05/29 03:39:30;;;;;;;33.55;21.50;;;9.10;96.20;;;;;;4924428;29;20035;-83
2021/05/29 03:41:56;;;;;;;33.45;20.58;;;9.10;96.20;;;;;;4927509;29;20036;-83
2021/05/29 03:44:22;;;;;;;33.70;20.30;;;9.10;96.30;;;;;;4911469;29;20035;-83
2021/05/29 03:46:47;;;;;;;41.85;23.80;;;9.10;96.30;;;;;;4932840;29;20419;-83
2021/05/29 03:49:13;;;;;;;35.30;21.60;;;9.20;96.30;;;;;;4927645;29;20032;-83
2021/05/29 03:51:39;;;;;;;40.15;21.95;;;9.20;96.40;;;;;;4927507;29;20095;-83
2021/05/29 03:54:05;;;;;;;35.17;21.30;;;9.30;96.40;;;;;;4912580;29;20529;-83
2021/05/29 03:56:31;;;;;;;28.60;18.60;;;9.30;96.40;;;;;;4926698;29;20059;-83
2021/05/29 03:58:57;;;;;;;38.65;21.45;;;9.40;96.40;;;;;;4910928;29;20078;-82
2021/05/29 04:01:23;;;;;;;32.40;19.75;;;9.40;96.30;;;;;;4939973;28;20525;-82
2021/05/29 04:03:48;;;;;;;35.45;20.52;;;9.40;96.30;;;;;;4956947;28;20035;-83
2021/05/29 04:06:15;;;;;;;35.15;20.73;;;9.40;96.30;;;;;;4927330;29;20046;-82
2021/05/29 04:08:40;;;;;;;33.65;20.83;;;9.50;96.40;;;;;;4930739;29;20501;-82
2021/05/29 04:14:48;;;;;;;37.00;21.00;;;9.50;96.50;;;;;;4929372;29;20030;-82
2021/05/29 04:17:14;;;;;;;30.25;19.13;;;9.50;96.50;;;;;;4931081;29;20041;-80
2021/05/29 04:19:40;;;;;;;32.33;20.75;;;9.60;96.50;;;;;;4928270;29;20039;-83
2021/05/29 04:22:06;;;;;;;37.72;19.95;;;9.60;96.80;;;;;;4964233;28;20032;-82
2021/05/29 04:24:32;;;;;;;32.50;18.65;;;9.60;96.50;;;;;;4913746;29;20068;-83
2021/05/29 04:26:58;;;;;;;38.03;20.58;;;9.70;96.60;;;;;;4948244;28;20375;-83
2021/05/29 04:29:24;;;;;;;33.92;20.38;;;9.70;96.60;;;;;;4927008;29;20035;-83
2021/05/29 04:31:49;;;;;;;39.30;21.10;;;9.70;96.60;;;;;;4943388;28;20052;-82
2021/05/29 04:34:15;;;;;;;28.15;19.05;;;9.70;96.70;;;;;;4945376;28;20465;-82
2021/05/29 04:36:41;;;;;;;35.78;20.15;;;9.80;96.70;;;;;;4946945;28;20283;-82
2021/05/29 04:39:07;;;;;;;31.55;19.50;;;9.80;96.70;;;;;;4880532;29;20091;-82
2021/05/29 04:41:33;;;;;;;32.90;20.27;;;9.80;96.70;;;;;;4949223;28;20509;-83
2021/05/29 04:43:59;;;;;;;36.58;21.08;;;9.80;96.70;;;;;;4911343;29;20059;-82
2021/05/29 04:46:25;;;;;;;43.75;22.30;;;9.90;96.70;;;;;;4930166;28;20036;-82
2021/05/29 04:48:51;;;;;;;38.97;23.33;;;9.90;96.70;;;;;;4907528;29;20039;-82
2021/05/29 04:51:16;;;;;;;33.88;20.30;;;10.00;96.80;;;;;;4934587;29;20396;-82
2021/05/29 04:53:44;;;;;;;31.75;18.80;;;10.00;96.80;;;;;;4921603;29;20055;-82
2021/05/29 04:56:15;;;;;;;31.90;19.48;;;10.00;96.80;;;;;;4933626;29;20040;-82
2021/05/29 04:58:41;;;;;;;30.63;18.90;;;10.10;96.70;;;;;;4934148;29;20456;-82
2021/05/29 05:01:08;;;;;;;34.58;20.73;;;10.10;96.70;;;;;;4912999;29;20071;-82
2021/05/29 05:03:37;;;;;;;33.45;20.20;;;10.10;96.70;;;;;;4927012;29;20083;-82
2021/05/29 05:06:04;;;;;;;31.42;19.73;;;10.10;96.70;;;;;;4924839;29;20078;-82
2021/05/29 05:08:31;;;;;;;38.80;19.92;;;10.10;96.70;;;;;;4939742;29;20382;-82
2021/05/29 05:10:56;;;;;;;37.45;21.70;;;10.20;96.70;;;;;;4943335;29;20483;-82
2021/05/29 05:13:23;;;;;;;42.15;23.13;;;10.20;96.70;;;;;;4927763;29;20056;-82
2021/05/29 05:15:53;;;;;;;37.13;21.80;;;10.20;96.70;;;;;;4942440;28;20475;-82
2021/05/29 05:18:21;;;;;;;33.45;21.30;;;10.30;96.80;;;;;;4915976;29;20459;-82
2021/05/29 05:20:48;;;;;;;30.67;21.23;;;10.30;96.80;;;;;;4933376;29;20387;-82
2021/05/29 05:23:14;;;;;;;35.17;20.77;;;10.40;96.80;;;;;;4932863;29;20432;-82
2021/05/29 05:25:40;;;;;;;39.85;22.88;;;10.40;96.70;;;;;;4917741;29;20087;-82
2021/05/29 05:28:06;;;;;;;28.50;19.95;;;10.40;96.80;;;;;;4933010;29;20041;-82
2021/05/29 05:30:32;;;;;;;39.92;22.15;;;10.40;96.70;;;;;;4929282;29;20290;-83
2021/05/29 05:33:04;;;;;;;31.30;21.23;;;10.50;96.70;;;;;;4947680;29;20046;-82
2021/05/29 05:35:30;;;;;;;41.65;21.40;;;10.50;96.70;;;;;;4948253;28;20048;-80
2021/05/29 05:37:56;;;;;;;35.83;20.33;;;10.50;96.60;;;;;;4950629;29;20063;-81
2021/05/29 05:40:23;;;;;;;35.70;22.48;;;10.60;96.60;;;;;;4953344;28;20510;-82
2021/05/29 05:42:49;;;;;;;35.40;22.27;;;10.60;96.60;;;;;;4943301;29;20039;-82
2021/05/29 05:45:15;;;;;;;38.83;21.67;;;10.60;96.60;;;;;;4944015;28;20407;-81
2021/05/29 05:47:41;;;;;;;35.60;21.33;;;10.70;96.60;;;;;;4912300;29;20512;-82
2021/05/29 05:50:09;;;;;;;35.83;21.92;;;10.60;96.60;;;;;;4943720;28;20036;-82
2021/05/29 05:52:37;;;;;;;34.53;20.35;;;10.70;96.60;;;;;;4911757;29;20067;-82
2021/05/29 05:55:04;;;;;;;35.35;20.98;;;10.60;96.50;;;;;;4927977;29;20047;-81
2021/05/29 05:57:32;;;;;;;32.95;22.15;;;10.60;96.50;;;;;;4959284;28;20031;-82
2021/05/29 05:59:58;;;;;;;40.35;22.00;;;10.70;96.60;;;;;;4925564;29;20513;-81
2021/05/29 06:02:25;;;;;;;35.70;20.85;;;10.70;96.60;;;;;;4911721;29;20051;-81
2021/05/29 06:04:51;;;;;;;34.50;20.65;;;10.70;96.50;;;;;;4932117;29;20514;-81
2021/05/29 06:07:16;;;;;;;31.73;21.30;;;10.70;96.50;;;;;;4946788;29;20060;-81
2021/05/29 06:09:42;;;;;;;34.65;20.67;;;10.80;96.60;;;;;;4931451;29;20035;-82
2021/05/29 06:12:08;;;;;;;33.75;20.58;;;10.80;96.50;;;;;;4931628;29;20032;-82
2021/05/29 06:20:05;;;;;;;33.40;21.17;;;10.90;96.50;;;;;;4942480;28;20574;-82
2021/05/29 06:22:31;;;;;;;35.92;20.42;;;10.90;96.50;;;;;;4947959;29;20499;-82
2021/05/29 06:24:57;;;;;;;35.83;20.80;;;11.00;96.60;;;;;;4932320;29;20102;-81
2021/05/29 06:27:23;;;;;;;32.28;19.30;;;11.00;96.50;;;;;;4917840;29;20038;-82
2021/05/29 06:29:49;;;;;;;34.92;20.42;;;11.00;96.50;;;;;;4929811;29;20076;-81
2021/05/29 06:32:15;;;;;;;32.25;20.40;;;11.10;96.40;;;;;;4931520;29;20066;-82
2021/05/29 06:34:41;;;;;;;31.38;19.98;;;11.10;96.40;;;;;;4912820;29;20046;-81
2021/05/29 06:37:07;;;;;;;32.55;19.58;;;11.10;96.30;;;;;;4943975;29;20038;-81
2021/05/29 06:39:33;;;;;;;35.40;21.02;;;11.20;96.40;;;;;;4941572;28;20051;-81
2021/05/29 06:41:59;;;;;;;30.83;20.42;;;11.20;96.30;;;;;;4927098;29;20052;-81
2021/05/29 06:44:26;;;;;;;30.20;20.13;;;11.30;96.30;;;;;;4940471;29;20437;-82
2021/05/29 06:46:52;;;;;;;31.42;19.73;;;11.30;96.20;;;;;;4943103;29;20031;-82
2021/05/29 06:49:20;;;;;;;32.28;19.67;;;11.30;96.20;;;;;;4912404;29;20396;-82
2021/05/29 06:51:58;;;;;;;33.30;20.15;;;11.30;96.20;;;;;;4958082;28;20074;-82
2021/05/29 06:54:51;;;;;;;32.83;19.45;;;11.40;96.20;;;;;;4930580;29;20407;-82
2021/05/29 07:00:03;;;;;;;35.05;19.13;;;11.50;96.10;;;;;;4945047;28;20072;-82
2021/05/29 07:02:29;;;;;;;29.35;18.30;;;11.50;96.00;;;;;;4945398;29;20123;-82
2021/05/29 07:04:55;;;;;;;26.25;16.92;;;11.60;96.00;;;;;;4901768;29;20187;-81
2021/05/29 07:07:21;;;;;;;33.03;19.50;;;11.70;96.00;;;;;;4948500;29;20407;-82
2021/05/29 07:09:46;;;;;;;36.70;18.77;;;11.80;95.90;;;;;;4945504;28;20112;-82
2021/05/29 07:12:12;;;;;;;28.77;15.85;;;11.90;95.90;;;;;;4885990;29;20124;-82
2021/05/29 07:14:38;;;;;;;26.63;15.88;;;11.90;95.80;;;;;;4927106;29;20076;-82
2021/05/29 07:17:07;;;;;;;27.23;15.85;;;12.00;95.60;;;;;;4927240;29;20094;-82
2021/05/29 07:19:33;;;;;;;23.33;14.77;;;12.10;95.40;;;;;;4931784;29;20654;-82
2021/05/29 07:21:58;;;;;;;30.05;15.50;;;12.10;95.20;;;;;;4923456;29;20048;-82
2021/05/29 07:24:24;;;;;;;23.67;15.15;;;12.20;95.00;;;;;;4928109;29;20055;-82
2021/05/29 07:26:51;;;;;;;23.52;13.73;;;12.20;94.90;;;;;;4930833;29;20488;-82
2021/05/29 07:29:17;;;;;;;23.10;14.10;;;12.30;94.80;;;;;;4913470;29;20070;-82
2021/05/29 07:31:44;;;;;;;24.83;13.77;;;12.30;94.80;;;;;;4945169;29;20044;-82
2021/05/29 07:34:10;;;;;;;17.80;11.35;;;12.30;94.60;;;;;;4929558;29;20043;-82
2021/05/29 07:36:35;;;;;;;17.65;10.52;;;12.30;94.30;;;;;;4959272;28;20035;-82
2021/05/29 07:39:02;;;;;;;15.75;10.52;;;12.30;94.10;;;;;;4944019;28;20036;-82
2021/05/29 07:41:28;;;;;;;22.92;12.25;;;12.40;93.90;;;;;;4941907;28;20099;-82
2021/05/29 07:43:54;;;;;;;19.90;11.35;;;12.40;93.80;;;;;;4947077;28;20482;-82
2021/05/29 07:46:21;;;;;;;20.55;12.45;;;12.40;93.80;;;;;;4932077;29;20047;-82
2021/05/29 07:48:47;;;;;;;19.08;11.32;;;12.40;93.70;;;;;;4928687;29;20054;-82
2021/05/29 07:51:15;;;;;;;18.27;11.45;;;12.40;93.60;;;;;;4946860;28;20388;-82
2021/05/29 07:53:42;;;;;;;18.05;11.20;;;12.40;93.50;;;;;;4969086;28;20043;-81
2021/05/29 07:56:10;;;;;;;18.75;11.10;;;12.50;93.50;;;;;;4949762;29;20030;-81
2021/05/29 07:58:39;;;;;;;24.70;11.98;;;12.60;93.40;;;;;;4909281;29;20031;-82
2021/05/29 08:01:04;;;;;;;19.13;11.60;;;12.70;93.30;;;;;;4955762;28;20063;-84
2021/05/29 08:03:30;;;;;;;14.75;10.82;;;12.80;93.00;;;;;;4925081;29;20074;-82
2021/05/29 08:05:56;;;;;;;16.95;12.32;;;12.80;92.90;;;;;;4927165;29;20035;-81
2021/05/29 08:08:26;;;;;;;20.10;11.48;;;12.90;92.90;;;;;;4909070;29;20043;-82
2021/05/29 08:10:53;;;;;;;17.10;11.05;;;12.90;92.70;;;;;;4888677;29;1126088;-82
2021/05/29 08:13:20;;;;;;;15.43;10.98;;;13.00;92.70;;;;;;4910861;29;20127;-82
2021/05/29 08:15:47;;;;;;;18.05;10.48;;;13.00;92.50;;;;;;4909610;29;20036;-81
2021/05/29 08:18:17;;;;;;;18.38;10.68;;;13.10;92.50;;;;;;4927048;29;20832;-81
2021/05/29 08:20:47;;;;;;;17.67;11.00;;;13.10;92.00;;;;;;4909232;29;20139;-82
2021/05/29 08:23:13;;;;;;;19.23;10.80;;;13.10;92.20;;;;;;4942447;28;20558;-82
2021/05/29 08:25:39;;;;;;;21.92;12.48;;;13.00;92.10;;;;;;4911988;29;20067;-82
2021/05/29 08:28:05;;;;;;;20.48;12.27;;;13.00;92.00;;;;;;4941542;28;20036;-82
2021/05/29 08:30:31;;;;;;;21.27;11.98;;;13.10;92.00;;;;;;4925961;29;20048;-82
2021/05/29 08:32:58;;;;;;;25.27;12.32;;;13.10;91.90;;;;;;4927873;29;20035;-82
2021/05/29 08:35:24;;;;;;;18.60;12.20;;;13.20;92.10;;;;;;4946824;28;20455;-82
2021/05/29 08:37:50;;;;;;;15.18;9.85;;;13.30;92.10;;;;;;4925230;29;20134;-81
2021/05/29 08:40:18;;;;;;;20.88;10.77;;;13.40;91.80;;;;;;4941466;28;20119;-83
2021/05/29 08:42:46;;;;;;;11.25;8.90;;;13.50;91.60;;;;;;4911419;29;20040;-81
2021/05/29 08:45:13;;;;;;;14.40;9.88;;;13.60;91.50;;;;;;4926838;29;20091;-81
2021/05/29 08:47:40;;;;;;;15.73;9.07;;;13.60;91.20;;;;;;4926955;29;20040;-82
2021/05/29 08:50:07;;;;;;;14.45;8.60;;;13.70;90.90;;;;;;4928329;29;20426;-82
2021/05/29 08:52:37;;;;;;;21.23;9.88;;;13.70;90.70;;;;;;4912385;29;20127;-81
2021/05/29 08:55:12;;;;;;;17.77;9.63;;;13.70;90.20;;;;;;4928552;29;20296;-82
2021/05/29 08:57:39;;;;;;;15.88;8.80;;;13.70;90.20;;;;;;4911980;29;20047;-82
2021/05/29 09:00:12;;;;;;;13.52;7.40;;;13.60;90.30;;;;;;4926273;29;20046;-81
2021/05/29 09:02:57;;;;;;;13.45;7.88;;;13.60;89.70;;;;;;4911931;29;20120;-82
2021/05/29 09:05:33;;;;;;;12.85;7.95;;;13.70;90.00;;;;;;4928297;29;20032;-82
2021/05/29 09:08:07;;;;;;;10.23;7.20;;;13.70;90.20;;;;;;4941674;29;20086;-82
2021/05/29 09:10:42;;;;;;;14.00;7.57;;;13.80;89.90;;;;;;4945078;28;20119;-83
2021/05/29 09:13:14;;;;;;;14.95;7.93;;;13.90;89.40;;;;;;4913362;29;20050;-83
2021/05/29 09:15:45;;;;;;;14.88;8.20;;;13.90;89.10;;;;;;4913437;29;20087;-82
2021/05/29 09:18:24;;;;;;;12.88;7.07;;;13.90;88.60;;;;;;4938942;28;20067;-82
2021/05/29 09:20:50;;;;;;;12.40;7.65;;;13.90;88.40;;;;;;4944225;28;20046;-82
2021/05/29 09:23:17;;;;;;;11.23;7.00;;;13.90;89.00;;;;;;4943294;28;20039;-81
2021/05/29 09:25:54;;;;;;;11.35;7.25;;;14.00;88.70;;;;;;4941208;28;20028;-82
2021/05/29 09:28:24;;;;;;;10.52;7.35;;;14.20;89.00;;;;;;4944887;28;20046;-83
2021/05/29 09:30:53;;;;;;;14.40;7.68;;;14.30;88.30;;;;;;4928603;29;20051;-83
2021/05/29 09:33:22;;;;;;;13.63;9.02;;;14.50;87.40;;;;;;4934124;29;20569;-84
2021/05/29 09:36:01;;;;;;;15.00;8.90;;;14.60;87.20;;;;;;4914039;29;20032;-82
2021/05/29 09:38:44;;;;;;;16.25;8.93;;;14.60;87.40;;;;;;4915670;29;20321;-82
2021/05/29 09:41:33;;;;;;;16.00;8.45;;;14.60;87.40;;;;;;4929281;29;20043;-82
2021/05/29 09:44:00;;;;;;;12.65;8.75;;;14.60;87.50;;;;;;4948217;28;20467;-84
2021/05/29 09:46:30;;;;;;;15.80;8.50;;;14.70;87.10;;;;;;4932321;29;20355;-83
2021/05/29 09:49:01;;;;;;;14.68;8.48;;;14.70;86.60;;;;;;4949451;28;20040;-83
2021/05/29 09:51:31;;;;;;;13.23;7.88;;;14.70;86.60;;;;;;4929891;29;20039;-83
2021/05/29 09:54:06;;;;;;;14.07;7.57;;;14.70;86.20;;;;;;4914362;29;20086;-82
2021/05/29 09:56:44;;;;;;;11.60;7.28;;;14.80;86.40;;;;;;4931533;29;20050;-79
2021/05/29 09:59:14;;;;;;;16.77;7.50;;;14.90;86.40;;;;;;4932547;29;20039;-80
2021/05/29 10:01:43;;;;;;;9.82;6.38;;;15.00;85.50;;;;;;4929228;29;20039;-80
2021/05/29 10:04:14;;;;;;;10.13;6.50;;;15.00;84.70;;;;;;4950352;28;20039;-80
2021/05/29 10:06:41;;;;;;;14.85;8.20;;;15.10;85.20;;;;;;4948498;28;20095;-80
2021/05/29 10:09:07;;;;;;;13.52;8.13;;;15.10;84.00;;;;;;4932425;29;20053;-81
2021/05/29 10:11:36;;;;;;;15.77;8.10;;;15.20;84.10;;;;;;4935574;29;20051;-80
2021/05/29 10:14:07;;;;;;;13.77;7.88;;;15.30;83.60;;;;;;4930605;29;20127;-80
2021/05/29 10:16:34;;;;;;;11.15;7.88;;;15.30;83.60;;;;;;4960329;28;20111;-80
2021/05/29 10:19:02;;;;;;;11.18;7.68;;;15.30;83.60;;;;;;4916231;29;20058;-80
2021/05/29 10:21:32;;;;;;;10.73;7.03;;;15.30;83.00;;;;;;4927726;29;20040;-79
2021/05/29 10:23:59;;;;;;;11.20;7.85;;;15.30;83.30;;;;;;4930326;29;20046;-79
2021/05/29 10:26:27;;;;;;;14.68;8.25;;;15.30;82.90;;;;;;4928724;29;20063;-79
2021/05/29 10:28:55;;;;;;;15.38;8.35;;;15.40;82.70;;;;;;4925837;29;20131;-80
2021/05/29 10:31:28;;;;;;;14.00;7.72;;;15.30;82.50;;;;;;5026529;23;20188;-80
2021/05/29 10:33:55;;;;;;;14.18;6.88;;;15.30;83.60;;;;;;4949688;28;20041;-82
2021/05/29 10:36:40;;;;;;;13.13;7.05;;;15.30;82.60;;;;;;4963161;28;20049;-81
2021/05/29 10:39:13;;;;;;;13.95;7.07;;;15.40;82.70;;;;;;4963578;28;20027;-82
2021/05/29 10:41:55;;;;;;;9.88;6.13;;;15.40;82.40;;;;;;4930400;29;20047;-81
2021/05/29 10:44:41;;;;;;;12.60;7.45;;;15.40;81.60;;;;;;4929943;29;20111;-81
2021/05/29 10:47:12;;;;;;;12.35;6.85;;;15.50;81.50;;;;;;4933278;29;20043;-81
2021/05/29 10:49:50;;;;;;;14.50;7.25;;;15.40;81.20;;;;;;4932074;29;20507;-82
2021/05/29 10:52:35;;;;;;;15.57;7.43;;;15.40;81.40;;;;;;4918936;29;20511;-83
2021/05/29 10:55:13;;;;;;;11.75;6.82;;;15.40;81.90;;;;;;4949173;28;20040;-81
2021/05/29 10:57:52;;;;;;;11.05;6.78;;;15.40;81.90;;;;;;4955580;28;20529;-81
2021/05/29 11:00:38;;;;;;;12.05;6.38;;;15.40;82.00;;;;;;4939197;28;20451;-81
2021/05/29 11:03:16;;;;;;;11.85;5.80;;;15.50;81.40;;;;;;4926369;29;20046;-81
2021/05/29 11:05:45;;;;;;;9.80;6.22;;;15.50;80.10;;;;;;4926328;29;20058;-80
2021/05/29 11:08:45;;;;;;;14.23;6.00;;;15.40;79.00;;;;;;4925041;29;20110;-81
2021/05/29 11:11:36;;;;;;;8.70;6.00;;;15.40;79.60;;;;;;4925706;29;20046;-81
2021/05/29 11:14:12;;;;;;;10.35;5.90;;;15.50;77.50;;;;;;4925813;29;20082;-81
2021/05/29 11:16:50;;;;;;;11.38;5.78;;;15.60;79.50;;;;;;4913472;29;20043;-82
2021/05/29 11:19:22;;;;;;;9.35;6.18;;;15.70;78.50;;;;;;4926753;29;20407;-82
2021/05/29 11:22:08;;;;;;;12.27;6.47;;;15.70;78.60;;;;;;4917049;29;20039;-83
2021/05/29 11:24:40;;;;;;;11.93;6.80;;;15.70;79.20;;;;;;4929608;28;20099;-82
2021/05/29 11:27:20;;;;;;;10.95;6.57;;;15.70;79.00;;;;;;4919690;29;20046;-84
2021/05/29 11:29:51;;;;;;;10.00;6.53;;;15.80;78.80;;;;;;4920206;29;20064;-83
2021/05/29 11:35:42;;;;;;;9.60;6.07;;;15.80;80.10;;;;;;4950205;28;20055;-84
2021/05/29 11:38:27;;;;;;;11.18;6.43;;;15.80;79.60;;;;;;4902565;29;20447;-82
2021/05/29 11:40:58;;;;;;;9.27;6.60;;;15.80;79.00;;;;;;4915172;29;20040;-84
2021/05/29 11:43:39;;;;;;;10.93;6.10;;;15.70;79.40;;;;;;4924174;29;20505;-83
2021/05/29 11:46:16;;;;;;;8.98;6.07;;;15.60;77.60;;;;;;4928529;29;20503;-83
2021/05/29 11:48:45;;;;;;;13.15;5.45;;;15.60;77.00;;;;;;4959790;28;20055;-82
2021/05/29 11:51:14;;;;;;;12.20;5.55;;;15.50;78.60;;;;;;4932922;28;20039;-83
2021/05/29 11:53:51;;;;;;;11.68;6.40;;;15.60;78.90;;;;;;4938175;29;20043;-83
2021/05/29 11:56:38;;;;;;;8.38;6.20;;;15.60;79.70;;;;;;4938163;28;20058;-84
2021/05/29 11:59:06;;;;;;;8.43;5.40;;;15.70;78.90;;;;;;4928412;28;20355;-85
2021/05/29 12:01:44;;;;;;;11.07;6.15;;;15.80;78.30;;;;;;4944055;28;20040;-85
2021/05/29 12:04:18;;;;;;;11.07;7.22;;;15.80;77.60;;;;;;4956605;28;20059;-84
2021/05/29 12:07:01;;;;;;;8.23;5.03;;;15.80;77.40;;;;;;4929336;29;20585;-85
2021/05/29 12:09:27;;;;;;;8.90;5.22;;;15.90;77.20;;;;;;4926862;29;20047;-83
2021/05/29 12:11:54;;;;;;;8.00;5.25;;;16.00;77.40;;;;;;4928493;29;20427;-81
2021/05/29 12:14:26;;;;;;;7.40;5.50;;;16.20;77.60;;;;;;4930801;29;20123;-82
2021/05/29 12:16:57;;;;;;;10.45;5.28;;;16.20;76.60;;;;;;4932143;29;20376;-81
2021/05/29 12:19:30;;;;;;;9.70;6.53;;;16.30;75.60;;;;;;4930105;29;20038;-82
2021/05/29 12:22:06;;;;;;;11.10;5.90;;;16.20;76.20;;;;;;4932545;29;20119;-82
2021/05/29 12:24:37;;;;;;;11.15;6.88;;;16.20;76.40;;;;;;4930587;29;20479;-83
2021/05/29 12:27:03;;;;;;;15.10;6.43;;;16.10;76.60;;;;;;4929710;29;20046;-82
2021/05/29 12:29:29;;;;;;;10.05;7.88;;;16.10;77.30;;;;;;4931503;29;20561;-80
2021/05/29 12:31:58;;;;;;;10.05;6.93;;;16.00;78.00;;;;;;4913828;29;20098;-82
2021/05/29 12:34:28;;;;;;;12.35;7.20;;;16.00;78.10;;;;;;4901969;29;20047;-83
2021/05/29 12:36:56;;;;;;;11.25;7.07;;;16.00;76.80;;;;;;4926952;29;20043;-83
2021/05/29 12:39:23;;;;;;;9.48;6.40;;;16.00;78.10;;;;;;4922417;29;20036;-86
2021/05/29 12:41:49;;;;;;;12.55;6.88;;;16.00;78.30;;;;;;4913851;29;20060;-80
2021/05/29 12:44:15;;;;;;;8.50;5.97;;;16.00;77.40;;;;;;4913659;29;20039;-83
2021/05/29 12:46:41;;;;;;;10.00;6.15;;;16.10;77.70;;;;;;4931857;28;21435;-84
2021/05/29 12:49:15;;;;;;;10.10;6.65;;;16.20;76.40;;;;;;4914313;29;20076;-84
2021/05/29 12:51:44;;;;;;;14.10;6.82;;;16.20;75.90;;;;;;4909142;29;20039;-82
2021/05/29 12:54:11;;;;;;;9.48;6.38;;;16.10;75.60;;;;;;4920893;29;20036;-86
2021/05/29 12:56:52;;;;;;;11.35;7.13;;;16.10;75.50;;;;;;4949790;28;20064;-88
2021/05/29 12:59:23;;;;;;;10.85;6.20;;;16.10;75.00;;;;;;4946477;28;20040;-90